Time;durP1;ratioP1;P1;durP2;ratioP2;P2;SDS_P1;SDS_P2;PMS_P1;PMS_P2;Temp;Humidity;BMP_temperature;BMP_pressure;BME280_temperature;BME280_humidity;BME280_pressure;Samples;Min_cycle;Max_cycle;Signal;HPM_P1;HPM_P2
2021/08/30 00:00:10;;;;;;;34.95;22.17;;;15.90;99.90;;;;;;4825134;29;20103;-84
2021/08/30 00:02:36;;;;;;;39.40;22.42;;;15.90;99.90;;;;;;4867789;29;20055;-86
2021/08/30 00:05:03;;;;;;;37.15;22.52;;;15.90;99.90;;;;;;4895120;29;20068;-86
2021/08/30 00:07:29;;;;;;;38.55;22.15;;;15.90;99.90;;;;;;4917721;28;20052;-86
2021/08/30 00:09:54;;;;;;;35.05;23.63;;;15.90;99.90;;;;;;4898256;29;20365;-85
2021/08/30 00:12:20;;;;;;;36.85;24.88;;;15.80;99.90;;;;;;4912785;29;20044;-86
2021/08/30 00:14:46;;;;;;;38.75;24.77;;;15.80;99.90;;;;;;4917379;28;20032;-86
2021/08/30 00:17:11;;;;;;;38.17;23.33;;;15.80;99.90;;;;;;4910592;29;20040;-86
2021/08/30 00:19:37;;;;;;;37.90;23.23;;;15.80;99.90;;;;;;4897907;29;20042;-85
2021/08/30 00:22:02;;;;;;;41.55;24.25;;;15.80;99.90;;;;;;4912333;29;20035;-86
2021/08/30 00:24:28;;;;;;;41.20;24.88;;;15.80;99.90;;;;;;4898487;29;20047;-86
2021/08/30 00:26:54;;;;;;;45.83;24.83;;;15.70;99.90;;;;;;4894575;29;20518;-86
2021/08/30 00:29:25;;;;;;;37.15;25.17;;;15.80;99.90;;;;;;4906865;29;20033;-86
2021/08/30 00:31:53;;;;;;;36.83;24.00;;;15.80;99.90;;;;;;4929688;28;20048;-86
2021/08/30 00:34:18;;;;;;;36.63;23.83;;;15.90;99.90;;;;;;4911314;29;20103;-86
2021/08/30 00:36:44;;;;;;;38.00;24.52;;;15.90;99.90;;;;;;4904970;29;20036;-86
2021/08/30 00:39:09;;;;;;;39.65;24.65;;;15.80;99.90;;;;;;4928864;29;20031;-86
2021/08/30 00:41:35;;;;;;;37.45;21.75;;;15.80;99.90;;;;;;4915972;29;20476;-86
2021/08/30 00:44:00;;;;;;;38.42;24.60;;;15.80;99.90;;;;;;4917482;29;20040;-86
2021/08/30 00:46:26;;;;;;;41.97;26.05;;;15.80;99.90;;;;;;4917663;28;20164;-86
2021/08/30 00:48:52;;;;;;;41.33;24.55;;;15.80;99.90;;;;;;4895331;29;20118;-86
2021/08/30 00:51:18;;;;;;;42.50;25.95;;;15.80;99.90;;;;;;4915436;28;20040;-86
2021/08/30 00:53:47;;;;;;;46.17;24.10;;;15.70;99.90;;;;;;4915474;29;20046;-85
2021/08/30 00:56:14;;;;;;;40.72;23.13;;;15.70;99.90;;;;;;4903193;29;20028;-86
2021/08/30 00:58:43;;;;;;;42.15;23.63;;;15.70;99.90;;;;;;4926265;29;20047;-85
2021/08/30 01:01:14;;;;;;;35.33;22.30;;;15.70;99.90;;;;;;4927439;29;20420;-85
2021/08/30 01:03:40;;;;;;;43.22;24.20;;;15.70;99.90;;;;;;4899690;28;20047;-85
2021/08/30 01:06:19;;;;;;;41.22;23.48;;;15.70;99.90;;;;;;4911549;29;20032;-85
2021/08/30 01:08:48;;;;;;;39.65;23.83;;;15.70;99.90;;;;;;4908125;29;20043;-85
2021/08/30 01:11:18;;;;;;;39.20;24.98;;;15.70;99.90;;;;;;4905313;29;20127;-84
2021/08/30 01:14:02;;;;;;;44.00;24.38;;;15.70;99.90;;;;;;4937305;28;20055;-85
2021/08/30 01:16:28;;;;;;;47.63;25.00;;;15.70;99.90;;;;;;4911489;29;20033;-86
2021/08/30 01:18:58;;;;;;;37.08;24.20;;;15.60;99.90;;;;;;4912177;29;20523;-85
2021/08/30 01:21:32;;;;;;;45.03;24.95;;;15.60;99.90;;;;;;4913553;29;20039;-85
2021/08/30 01:24:06;;;;;;;42.15;23.60;;;15.60;99.90;;;;;;4917523;29;20032;-85
2021/08/30 01:26:33;;;;;;;46.08;25.33;;;15.60;99.90;;;;;;4912229;29;20549;-85
2021/08/30 01:29:05;;;;;;;38.65;23.58;;;15.60;99.90;;;;;;4899710;29;20514;-85
2021/08/30 01:31:55;;;;;;;38.03;24.42;;;15.50;99.90;;;;;;4912496;29;20400;-85
2021/08/30 01:34:21;;;;;;;34.90;24.05;;;15.60;99.90;;;;;;4918224;29;20040;-85
2021/08/30 01:36:47;;;;;;;36.08;23.35;;;15.60;99.90;;;;;;4922485;28;20044;-85
2021/08/30 01:39:12;;;;;;;34.70;22.73;;;15.60;99.90;;;;;;4908847;28;20036;-85
2021/08/30 01:41:38;;;;;;;37.20;24.75;;;15.60;99.90;;;;;;4898056;29;20123;-85
2021/08/30 01:44:06;;;;;;;39.72;23.13;;;15.60;99.90;;;;;;4928644;28;20496;-85
2021/08/30 01:46:31;;;;;;;41.30;24.20;;;15.60;99.90;;;;;;4912259;28;20095;-85
2021/08/30 01:48:57;;;;;;;33.45;23.52;;;15.50;99.90;;;;;;4905389;28;20028;-85
2021/08/30 01:51:24;;;;;;;32.97;22.77;;;15.50;99.90;;;;;;4937970;28;20042;-85
2021/08/30 01:53:51;;;;;;;34.50;23.90;;;15.50;99.90;;;;;;4919898;28;20570;-85
2021/08/30 01:56:19;;;;;;;38.15;22.65;;;15.50;99.90;;;;;;4932377;28;20067;-85
2021/08/30 02:01:30;;;;;;;37.13;23.45;;;15.50;99.90;;;;;;4923969;28;20067;-85
2021/08/30 02:03:56;;;;;;;35.38;22.20;;;15.50;99.90;;;;;;4894658;29;20395;-85
2021/08/30 02:06:22;;;;;;;34.25;23.10;;;15.50;99.90;;;;;;4914105;29;20044;-85
2021/08/30 02:08:47;;;;;;;33.28;21.00;;;15.60;99.90;;;;;;4909181;29;20040;-85
2021/08/30 02:11:15;;;;;;;33.00;21.92;;;15.50;99.90;;;;;;4909595;29;20079;-84
2021/08/30 02:13:40;;;;;;;32.95;21.52;;;15.50;99.90;;;;;;4925522;29;20035;-85
2021/08/30 02:16:06;;;;;;;36.83;22.95;;;15.50;99.90;;;;;;4910234;29;20035;-85
2021/08/30 02:18:35;;;;;;;31.60;22.38;;;15.50;99.90;;;;;;4914445;29;20028;-85
2021/08/30 02:21:12;;;;;;;32.60;20.92;;;15.50;99.90;;;;;;4908152;29;20107;-85
2021/08/30 02:23:58;;;;;;;34.35;21.85;;;15.50;99.90;;;;;;4911638;29;20567;-85
2021/08/30 02:26:27;;;;;;;34.88;21.20;;;15.50;99.90;;;;;;4911978;29;20036;-85
2021/08/30 02:28:52;;;;;;;34.08;22.23;;;15.40;99.90;;;;;;4910353;29;20032;-85
2021/08/30 02:31:18;;;;;;;33.72;22.23;;;15.50;99.90;;;;;;4917675;28;20043;-85
2021/08/30 02:33:43;;;;;;;35.20;22.60;;;15.50;99.90;;;;;;4922017;28;20040;-89
2021/08/30 02:36:09;;;;;;;34.17;24.05;;;15.50;99.90;;;;;;4932081;28;20112;-90
2021/08/30 02:38:35;;;;;;;35.97;21.80;;;15.40;99.90;;;;;;4934362;28;20031;-89
2021/08/30 02:41:02;;;;;;;32.85;22.65;;;15.40;99.90;;;;;;4913044;29;20039;-89
2021/08/30 02:43:27;;;;;;;36.50;23.58;;;15.40;99.90;;;;;;4912590;29;20028;-90
2021/08/30 02:45:53;;;;;;;36.40;24.05;;;15.40;99.90;;;;;;4911568;29;20083;-89
2021/08/30 02:48:19;;;;;;;33.15;22.38;;;15.40;99.90;;;;;;4911757;29;20142;-88
2021/08/30 02:50:44;;;;;;;35.30;24.00;;;15.40;99.90;;;;;;4896886;29;20115;-89
2021/08/30 02:53:10;;;;;;;38.50;24.20;;;15.40;99.90;;;;;;4916319;29;20028;-89
2021/08/30 02:55:35;;;;;;;35.15;23.60;;;15.40;99.90;;;;;;4906560;29;20566;-87
2021/08/30 02:58:03;;;;;;;35.50;23.42;;;15.40;99.90;;;;;;4896097;29;20040;-89
2021/08/30 03:00:32;;;;;;;35.08;22.80;;;15.40;99.90;;;;;;4917671;29;20028;-90
2021/08/30 03:02:58;;;;;;;33.33;23.08;;;15.40;99.90;;;;;;4915577;29;20051;-90
2021/08/30 03:05:24;;;;;;;37.28;22.80;;;15.30;99.90;;;;;;4917851;29;20627;-88
2021/08/30 03:07:49;;;;;;;41.00;25.20;;;15.40;99.90;;;;;;4936898;28;20079;-89
2021/08/30 03:10:15;;;;;;;33.00;23.00;;;15.40;99.90;;;;;;4910786;29;20083;-89
2021/08/30 03:12:41;;;;;;;35.97;24.88;;;15.30;99.90;;;;;;4921790;29;20036;-89
2021/08/30 03:15:08;;;;;;;35.33;24.83;;;15.30;99.90;;;;;;4920976;29;20123;-89
2021/08/30 03:17:37;;;;;;;41.10;25.83;;;15.30;99.90;;;;;;4919879;29;20065;-89
2021/08/30 03:20:04;;;;;;;38.10;24.27;;;15.30;99.90;;;;;;4917909;29;20055;-90
2021/08/30 03:22:30;;;;;;;39.45;26.40;;;15.30;99.90;;;;;;4920438;29;20027;-89
2021/08/30 03:24:55;;;;;;;40.45;25.88;;;15.30;99.90;;;;;;4918460;29;20042;-89
2021/08/30 03:27:21;;;;;;;42.17;26.70;;;15.30;99.90;;;;;;4923862;29;20040;-90
2021/08/30 03:29:48;;;;;;;42.05;25.60;;;15.30;99.90;;;;;;4933542;28;20499;-89
2021/08/30 03:32:14;;;;;;;36.13;25.17;;;15.30;99.90;;;;;;4917784;29;20040;-90
2021/08/30 03:34:39;;;;;;;42.05;26.92;;;15.30;99.90;;;;;;4919557;29;20047;-89
2021/08/30 03:37:05;;;;;;;41.40;27.95;;;15.30;99.90;;;;;;4920695;29;20032;-90
2021/08/30 03:39:31;;;;;;;39.20;27.17;;;15.30;99.90;;;;;;4917666;28;20038;-89
2021/08/30 03:41:57;;;;;;;41.15;28.05;;;15.20;99.90;;;;;;4924540;29;20035;-90
2021/08/30 03:44:22;;;;;;;49.70;27.90;;;15.20;99.90;;;;;;4933899;28;20052;-89
2021/08/30 03:46:48;;;;;;;39.58;26.70;;;15.20;99.90;;;;;;4920611;28;20036;-89
2021/08/30 03:49:14;;;;;;;41.15;27.90;;;15.30;99.90;;;;;;4941812;28;20047;-90
2021/08/30 03:51:40;;;;;;;33.97;23.63;;;15.20;99.90;;;;;;4924094;28;20068;-90
2021/08/30 03:54:05;;;;;;;40.08;25.38;;;15.30;99.90;;;;;;4915395;29;20699;-90
2021/08/30 03:56:33;;;;;;;40.97;27.88;;;15.30;99.90;;;;;;4920464;29;20047;-86
2021/08/30 03:59:02;;;;;;;42.28;28.75;;;15.20;99.90;;;;;;4917144;29;20111;-89
2021/08/30 04:01:29;;;;;;;45.00;27.70;;;15.20;99.90;;;;;;4912393;29;20040;-89
2021/08/30 04:03:57;;;;;;;44.80;28.58;;;15.20;99.90;;;;;;4917667;29;20044;-90
2021/08/30 04:06:24;;;;;;;45.90;27.40;;;15.20;99.90;;;;;;4921641;29;20113;-88
2021/08/30 04:08:49;;;;;;;39.72;25.85;;;15.20;99.90;;;;;;4916131;29;20111;-90
2021/08/30 04:11:15;;;;;;;40.50;27.95;;;15.20;99.90;;;;;;4915919;29;20081;-90
2021/08/30 04:13:41;;;;;;;41.88;28.98;;;15.20;99.90;;;;;;4919964;28;20567;-89
2021/08/30 04:16:07;;;;;;;41.20;26.70;;;15.20;99.90;;;;;;4939114;28;20103;-90
2021/08/30 04:18:32;;;;;;;58.35;29.38;;;15.20;99.90;;;;;;4929116;29;20032;-90
2021/08/30 04:20:58;;;;;;;41.28;28.15;;;15.20;99.90;;;;;;4904763;28;20023;-90
2021/08/30 04:23:23;;;;;;;41.65;26.20;;;15.20;99.90;;;;;;4932843;28;20555;-91
2021/08/30 04:25:49;;;;;;;36.72;26.10;;;15.20;99.90;;;;;;4915568;29;20091;-89
2021/08/30 04:28:15;;;;;;;39.28;26.17;;;15.10;99.90;;;;;;4920670;28;20027;-90
2021/08/30 04:30:40;;;;;;;43.92;28.45;;;15.20;99.90;;;;;;4945394;28;20024;-91
2021/08/30 04:33:11;;;;;;;42.53;28.08;;;15.20;99.90;;;;;;4919920;28;20024;-89
2021/08/30 04:35:37;;;;;;;44.97;29.63;;;15.20;99.90;;;;;;4928456;28;20028;-88
2021/08/30 04:38:04;;;;;;;39.65;28.08;;;15.20;99.90;;;;;;4935475;28;20036;-89
2021/08/30 04:40:29;;;;;;;43.28;27.95;;;15.20;99.90;;;;;;4915018;29;20040;-90
2021/08/30 04:43:04;;;;;;;41.40;28.27;;;15.20;99.90;;;;;;4926860;29;20052;-87
2021/08/30 04:45:29;;;;;;;50.28;30.63;;;15.20;99.90;;;;;;4907600;29;20064;-86
2021/08/30 04:47:55;;;;;;;39.55;29.35;;;15.20;99.90;;;;;;4916066;28;20032;-86
2021/08/30 04:50:21;;;;;;;42.20;28.77;;;15.20;99.90;;;;;;4913668;29;20174;-85
2021/08/30 04:52:46;;;;;;;47.90;31.40;;;15.20;99.90;;;;;;4915187;28;20043;-87
2021/08/30 04:55:12;;;;;;;41.72;27.42;;;15.20;99.90;;;;;;4911966;29;20035;-87
2021/08/30 04:57:38;;;;;;;44.03;30.83;;;15.20;99.90;;;;;;4883365;28;20524;-86
2021/08/30 05:00:04;;;;;;;43.72;27.42;;;15.20;99.90;;;;;;4915409;29;20036;-86
2021/08/30 05:02:30;;;;;;;47.85;28.27;;;15.20;99.90;;;;;;4919539;29;20038;-87
2021/08/30 05:04:57;;;;;;;46.88;28.88;;;15.20;99.90;;;;;;4913661;28;20039;-85
2021/08/30 05:07:23;;;;;;;46.83;27.90;;;15.20;99.90;;;;;;4931599;28;20044;-85
2021/08/30 05:09:50;;;;;;;43.45;27.85;;;15.20;99.90;;;;;;4906270;29;20526;-86
2021/08/30 05:12:16;;;;;;;45.35;29.35;;;15.20;99.90;;;;;;4914833;28;20043;-86
2021/08/30 05:14:41;;;;;;;42.17;28.45;;;15.20;99.90;;;;;;4912800;29;20028;-86
2021/08/30 05:17:07;;;;;;;40.63;27.48;;;15.20;99.90;;;;;;4912102;29;20036;-86
2021/08/30 05:19:32;;;;;;;40.38;28.45;;;15.30;99.90;;;;;;4912404;29;20032;-86
2021/08/30 05:21:58;;;;;;;45.75;27.70;;;15.20;99.90;;;;;;4897291;28;20032;-86
2021/08/30 05:24:23;;;;;;;45.15;28.20;;;15.20;99.90;;;;;;4913433;28;20482;-87
2021/08/30 05:26:49;;;;;;;40.70;27.27;;;15.20;99.90;;;;;;4922855;28;20035;-86
2021/08/30 05:29:15;;;;;;;43.40;28.75;;;15.20;99.90;;;;;;4908138;29;20036;-86
2021/08/30 05:31:40;;;;;;;39.72;28.80;;;15.20;99.90;;;;;;4915821;28;20096;-86
2021/08/30 05:34:10;;;;;;;47.50;29.40;;;15.30;99.90;;;;;;4912012;29;20032;-85
2021/08/30 05:36:36;;;;;;;52.88;30.40;;;15.30;99.90;;;;;;4892590;29;20055;-85
2021/08/30 05:39:02;;;;;;;43.55;30.10;;;15.30;99.90;;;;;;4911679;29;20119;-86
2021/08/30 05:41:28;;;;;;;54.58;31.67;;;15.30;99.90;;;;;;4912364;29;20095;-86
2021/08/30 05:43:53;;;;;;;46.67;31.42;;;15.30;99.90;;;;;;4912664;29;20088;-86
2021/08/30 05:46:19;;;;;;;42.22;30.90;;;15.40;99.90;;;;;;4909873;29;20452;-86
2021/08/30 05:48:46;;;;;;;42.17;30.70;;;15.40;99.90;;;;;;4918375;29;20031;-85
2021/08/30 05:51:17;;;;;;;49.28;32.85;;;15.40;99.90;;;;;;4927805;28;20096;-86
2021/08/30 05:53:43;;;;;;;50.50;28.77;;;15.40;99.90;;;;;;4912371;28;20470;-86
2021/08/30 05:56:08;;;;;;;46.65;30.60;;;15.50;99.90;;;;;;4910905;29;20115;-86
2021/08/30 05:58:37;;;;;;;43.92;31.35;;;15.50;99.90;;;;;;4911815;29;20032;-86
2021/08/30 06:01:03;;;;;;;45.70;31.67;;;15.60;99.90;;;;;;4917858;29;20034;-86
2021/08/30 06:03:29;;;;;;;39.38;27.67;;;15.60;99.90;;;;;;4911372;29;20040;-86
2021/08/30 06:05:55;;;;;;;41.67;28.63;;;15.60;99.90;;;;;;4901375;29;20032;-86
2021/08/30 06:08:20;;;;;;;44.95;29.65;;;15.70;99.90;;;;;;4929162;28;20120;-85
2021/08/30 06:10:56;;;;;;;42.13;28.48;;;15.60;99.90;;;;;;4916351;28;20661;-86
2021/08/30 06:13:22;;;;;;;47.10;29.30;;;15.70;99.90;;;;;;4898426;29;20552;-86
2021/08/30 06:15:48;;;;;;;43.28;32.25;;;15.60;99.90;;;;;;4911668;28;20040;-86
2021/08/30 06:18:13;;;;;;;46.25;29.80;;;15.70;99.90;;;;;;4912689;29;20021;-85
2021/08/30 06:20:47;;;;;;;42.85;28.48;;;15.80;99.90;;;;;;4907391;29;20024;-86
2021/08/30 06:23:12;;;;;;;44.90;32.55;;;15.70;99.90;;;;;;4912478;29;20030;-86
2021/08/30 06:25:39;;;;;;;48.53;31.90;;;15.80;99.90;;;;;;4913428;29;20032;-86
2021/08/30 06:28:05;;;;;;;43.03;28.75;;;15.90;99.90;;;;;;4914955;29;20528;-90
2021/08/30 06:30:33;;;;;;;49.35;29.35;;;16.00;99.90;;;;;;4911419;29;20024;-88
2021/08/30 06:32:59;;;;;;;42.97;29.00;;;16.10;99.90;;;;;;4913315;29;20088;-90
2021/08/30 06:35:24;;;;;;;42.83;28.15;;;16.10;99.90;;;;;;4912501;29;20043;-89
2021/08/30 06:37:50;;;;;;;45.78;27.25;;;16.30;99.90;;;;;;4914497;28;20115;-89
2021/08/30 06:40:17;;;;;;;38.97;28.48;;;16.20;99.90;;;;;;4941761;28;20032;-90
2021/08/30 06:42:43;;;;;;;44.95;28.45;;;16.30;99.90;;;;;;4895551;29;20381;-89
2021/08/30 06:45:11;;;;;;;45.63;30.23;;;16.30;99.90;;;;;;4915668;29;20065;-89
2021/08/30 06:47:37;;;;;;;43.95;29.15;;;16.40;99.90;;;;;;4917557;29;20063;-90
2021/08/30 06:50:08;;;;;;;42.25;28.13;;;16.40;99.90;;;;;;4912755;28;20044;-90
2021/08/30 06:52:34;;;;;;;45.97;28.23;;;16.50;99.90;;;;;;4913042;29;20030;-88
2021/08/30 06:55:00;;;;;;;36.67;26.23;;;16.50;99.90;;;;;;4915000;28;20515;-89
2021/08/30 06:57:31;;;;;;;42.72;30.95;;;16.60;99.90;;;;;;4916289;28;20032;-88
2021/08/30 06:59:56;;;;;;;40.90;27.65;;;16.60;99.90;;;;;;4899480;29;20032;-88
2021/08/30 07:02:34;;;;;;;42.75;28.40;;;16.70;99.90;;;;;;4933036;28;20044;-88
2021/08/30 07:04:59;;;;;;;46.97;27.90;;;16.70;99.90;;;;;;4886665;28;21554;-89
2021/08/30 07:07:26;;;;;;;35.95;26.90;;;16.70;99.90;;;;;;4911932;29;20528;-90
2021/08/30 07:09:52;;;;;;;39.47;26.73;;;16.80;99.90;;;;;;4913538;29;20112;-87
2021/08/30 07:12:17;;;;;;;37.50;28.00;;;16.80;99.90;;;;;;4917226;29;20492;-89
2021/08/30 07:14:43;;;;;;;40.35;27.58;;;16.80;99.90;;;;;;4947623;28;20157;-89
2021/08/30 07:17:09;;;;;;;36.42;26.88;;;16.80;99.90;;;;;;4920591;29;20044;-90
2021/08/30 07:19:42;;;;;;;38.15;26.35;;;16.90;99.90;;;;;;4917884;29;20066;-90
2021/08/30 07:22:14;;;;;;;32.95;24.83;;;16.90;99.90;;;;;;4909672;29;20035;-88
2021/08/30 07:24:44;;;;;;;33.30;25.45;;;17.00;99.90;;;;;;4926973;29;20451;-88
2021/08/30 07:27:11;;;;;;;40.88;26.27;;;17.10;99.90;;;;;;4918447;29;20040;-89
2021/08/30 07:29:37;;;;;;;34.90;25.38;;;17.30;99.90;;;;;;4906124;29;20115;-89
2021/08/30 07:32:05;;;;;;;34.60;23.20;;;17.40;99.90;;;;;;4925252;28;20130;-89
2021/08/30 07:34:31;;;;;;;32.53;24.02;;;17.40;99.90;;;;;;4943140;28;20050;-89
2021/08/30 07:36:58;;;;;;;32.20;23.83;;;17.50;99.90;;;;;;4910992;29;20047;-89
2021/08/30 07:39:23;;;;;;;32.80;23.90;;;17.50;99.90;;;;;;4909112;28;20066;-90
2021/08/30 07:41:50;;;;;;;32.22;23.83;;;17.60;99.90;;;;;;4909197;28;20167;-88
2021/08/30 07:44:19;;;;;;;31.77;22.85;;;17.70;99.90;;;;;;4901967;29;20129;-91
2021/08/30 07:46:45;;;;;;;27.80;23.27;;;17.60;99.90;;;;;;4925438;28;20040;-88
2021/08/30 07:49:14;;;;;;;26.55;22.23;;;17.80;99.90;;;;;;4926371;28;20185;-91
2021/08/30 07:51:42;;;;;;;29.40;23.40;;;17.90;99.90;;;;;;4908801;29;20080;-88
2021/08/30 07:54:11;;;;;;;26.77;21.92;;;17.90;99.90;;;;;;4908520;29;20122;-90
2021/08/30 07:56:41;;;;;;;31.42;23.85;;;17.90;99.90;;;;;;4927507;29;20032;-90
2021/08/30 07:59:10;;;;;;;30.13;22.60;;;17.90;99.90;;;;;;4918241;28;20040;-90
2021/08/30 08:01:38;;;;;;;31.45;21.85;;;17.90;99.90;;;;;;4895046;29;20024;-90
2021/08/30 08:04:05;;;;;;;30.20;21.95;;;18.00;99.90;;;;;;4945323;28;20448;-87
2021/08/30 08:06:31;;;;;;;34.13;21.52;;;18.10;99.90;;;;;;4926817;29;20100;-89
2021/08/30 08:09:04;;;;;;;29.38;20.80;;;18.10;99.90;;;;;;4923659;29;20076;-88
2021/08/30 08:11:36;;;;;;;28.23;20.77;;;18.10;99.90;;;;;;4934469;29;20060;-89
2021/08/30 08:14:02;;;;;;;25.92;21.25;;;18.10;99.90;;;;;;4928849;28;20032;-90
2021/08/30 08:16:28;;;;;;;26.00;20.40;;;18.10;99.90;;;;;;4930909;29;20096;-90
2021/08/30 08:18:54;;;;;;;26.13;20.30;;;18.10;99.90;;;;;;4919217;29;20055;-91
2021/08/30 08:21:22;;;;;;;26.70;21.02;;;18.20;99.90;;;;;;4918050;29;20040;-91
2021/08/30 08:24:16;;;;;;;;;;;;;;;;;;;;;
2021/08/30 08:27:10;;;;;;;24.45;20.02;;;18.70;99.90;;;;;;4943119;28;20877;-89
2021/08/30 08:29:36;;;;;;;25.00;18.90;;;18.90;99.90;;;;;;4926008;28;20082;-92
2021/08/30 08:32:04;;;;;;;23.33;18.52;;;19.10;99.90;;;;;;4935207;28;20039;-89
2021/08/30 08:34:30;;;;;;;24.52;18.15;;;19.30;99.90;;;;;;4912782;28;20043;-88
2021/08/30 08:37:01;;;;;;;25.50;19.75;;;19.50;99.90;;;;;;4920196;29;20038;-90
2021/08/30 08:39:27;;;;;;;24.33;18.58;;;19.60;99.90;;;;;;4924236;28;20103;-91
2021/08/30 08:41:53;;;;;;;22.63;17.63;;;19.80;99.90;;;;;;4931203;28;20031;-89
2021/08/30 08:44:24;;;;;;;19.42;17.35;;;19.90;99.90;;;;;;4905281;29;20043;-87
2021/08/30 08:46:50;;;;;;;23.65;18.83;;;20.00;99.90;;;;;;4940307;28;20055;-88
2021/08/30 08:49:19;;;;;;;20.30;17.02;;;20.10;99.90;;;;;;4908144;29;20028;-89
2021/08/30 08:51:50;;;;;;;24.20;18.10;;;20.00;99.90;;;;;;4910696;28;20044;-87
2021/08/30 08:54:18;;;;;;;23.40;16.02;;;20.20;99.90;;;;;;4885709;29;20051;-89
2021/08/30 08:57:03;;;;;;;20.10;16.55;;;20.40;99.90;;;;;;4906574;28;20168;-87
2021/08/30 08:59:32;;;;;;;21.63;16.02;;;20.50;99.90;;;;;;4891982;29;20122;-89
2021/08/30 09:02:06;;;;;;;20.98;15.90;;;20.70;99.90;;;;;;4912635;29;20088;-90
2021/08/30 09:04:53;;;;;;;17.25;14.43;;;20.90;99.90;;;;;;4909393;29;20050;-88
2021/08/30 09:07:19;;;;;;;16.02;14.27;;;21.10;99.90;;;;;;4897591;29;20048;-88
2021/08/30 09:09:45;;;;;;;21.35;15.40;;;21.20;99.90;;;;;;4919969;29;20102;-87
2021/08/30 09:12:20;;;;;;;22.52;14.63;;;21.30;99.90;;;;;;4919611;29;20521;-89
2021/08/30 09:14:48;;;;;;;17.50;14.52;;;21.20;99.90;;;;;;4919216;28;20055;-89
2021/08/30 09:17:13;;;;;;;16.83;14.88;;;21.30;99.90;;;;;;4911044;29;20260;-89
2021/08/30 09:19:40;;;;;;;19.13;15.35;;;21.40;99.90;;;;;;4915961;29;20064;-88
2021/08/30 09:22:06;;;;;;;20.00;16.25;;;21.40;99.90;;;;;;4923355;29;20059;-88
2021/08/30 09:24:32;;;;;;;25.02;16.40;;;21.40;99.90;;;;;;4922134;29;20048;-89
2021/08/30 09:27:05;;;;;;;23.77;18.25;;;21.40;99.90;;;;;;4903201;29;20048;-89
2021/08/30 09:29:33;;;;;;;18.85;15.75;;;21.30;99.90;;;;;;4928224;28;20073;-88
2021/08/30 09:32:12;;;;;;;22.05;15.93;;;21.40;99.90;;;;;;4921581;28;20032;-88
2021/08/30 09:34:51;;;;;;;21.25;16.10;;;21.50;99.90;;;;;;4945946;28;20039;-88
2021/08/30 09:37:23;;;;;;;20.50;16.02;;;21.60;99.90;;;;;;4912170;29;20041;-88
2021/08/30 09:39:52;;;;;;;19.92;17.42;;;21.60;99.90;;;;;;4930774;28;20036;-88
2021/08/30 09:42:23;;;;;;;23.50;15.23;;;21.60;99.90;;;;;;4931281;29;20043;-88
2021/08/30 09:44:55;;;;;;;22.40;16.58;;;21.70;99.90;;;;;;4928233;28;20036;-88
2021/08/30 09:47:24;;;;;;;17.27;15.38;;;21.70;99.90;;;;;;4928339;28;20037;-88
2021/08/30 09:49:52;;;;;;;22.33;16.02;;;21.70;99.90;;;;;;4924693;28;20036;-87
2021/08/30 09:52:21;;;;;;;18.75;15.15;;;21.70;99.90;;;;;;4920273;29;20012;-88
2021/08/30 09:54:48;;;;;;;20.33;16.58;;;21.80;99.90;;;;;;4904750;29;20036;-89
2021/08/30 09:57:14;;;;;;;21.70;15.73;;;21.80;99.90;;;;;;4914108;29;20059;-90
2021/08/30 09:59:44;;;;;;;19.00;15.95;;;21.90;99.90;;;;;;4928408;29;20099;-87
2021/08/30 10:02:17;;;;;;;19.00;14.55;;;22.00;99.90;;;;;;4937433;28;20041;-88
2021/08/30 10:04:44;;;;;;;17.70;14.95;;;22.20;99.90;;;;;;4938820;28;20038;-87
2021/08/30 10:07:10;;;;;;;18.02;14.68;;;22.40;99.90;;;;;;4934885;28;20318;-87
2021/08/30 10:09:36;;;;;;;18.33;15.48;;;22.40;99.90;;;;;;4933473;29;20064;-86
2021/08/30 10:12:04;;;;;;;22.02;15.07;;;22.60;99.90;;;;;;4919366;28;20036;-86
2021/08/30 10:14:33;;;;;;;17.95;14.55;;;22.70;99.90;;;;;;4928786;29;20059;-87
2021/08/30 10:17:05;;;;;;;18.10;14.70;;;22.70;99.90;;;;;;4935008;28;20046;-87
2021/08/30 10:19:40;;;;;;;19.13;15.65;;;22.70;99.90;;;;;;4916266;29;20054;-88
2021/08/30 10:22:17;;;;;;;15.95;14.25;;;22.80;99.90;;;;;;4904457;29;20041;-87
2021/08/30 10:25:06;;;;;;;;;;;;;;;;;;;;;
2021/08/30 10:27:34;;;;;;;15.13;12.85;;;23.00;99.90;;;;;;4906877;29;20263;-88
2021/08/30 10:30:32;;;;;;;18.63;13.68;;;23.10;99.90;;;;;;4887869;29;20234;-88
2021/08/30 10:32:59;;;;;;;15.95;13.00;;;23.20;99.90;;;;;;4900425;28;20062;-89
2021/08/30 10:35:29;;;;;;;15.45;13.82;;;23.50;99.80;;;;;;4914291;29;20042;-89
2021/08/30 10:38:17;;;;;;;14.70;12.50;;;23.60;98.70;;;;;;4938144;28;20040;-88
2021/08/30 10:40:55;;;;;;;16.73;12.48;;;23.70;99.90;;;;;;4921153;29;20051;-88
2021/08/30 10:43:23;;;;;;;15.60;12.65;;;23.80;99.90;;;;;;4921276;29;20157;-87
2021/08/30 10:45:58;;;;;;;21.08;13.35;;;24.00;99.70;;;;;;4906808;29;20451;-89
2021/08/30 10:48:37;;;;;;;14.15;12.60;;;24.00;98.70;;;;;;4920681;29;20104;-88
2021/08/30 10:51:36;;;;;;;18.38;13.88;;;24.20;99.40;;;;;;4938964;28;20036;-88
2021/08/30 10:54:22;;;;;;;14.35;12.85;;;24.10;98.30;;;;;;4899755;29;20050;-88
2021/08/30 10:57:01;;;;;;;15.45;12.82;;;24.10;99.00;;;;;;4924723;29;20028;-88
2021/08/30 10:59:36;;;;;;;17.17;12.25;;;24.20;99.50;;;;;;4895670;29;20087;-88
2021/08/30 11:02:25;;;;;;;21.70;12.40;;;24.50;98.50;;;;;;4912118;28;20552;-88
2021/08/30 11:04:52;;;;;;;13.30;11.05;;;24.60;98.80;;;;;;4917504;28;20432;-89
2021/08/30 11:07:17;;;;;;;15.88;11.82;;;24.60;98.40;;;;;;4922189;29;20048;-89
2021/08/30 11:09:52;;;;;;;15.23;11.63;;;24.90;98.70;;;;;;4888690;29;20543;-89
2021/08/30 11:12:17;;;;;;;17.20;11.38;;;24.90;98.40;;;;;;4923366;29;20380;-90
2021/08/30 11:14:43;;;;;;;13.77;10.88;;;25.10;97.90;;;;;;4927065;29;20048;-89
2021/08/30 11:17:12;;;;;;;12.95;11.07;;;25.20;97.00;;;;;;4940918;28;20764;-89
2021/08/30 11:19:38;;;;;;;14.82;11.80;;;25.20;96.60;;;;;;4921910;29;20043;-89
2021/08/30 11:22:06;;;;;;;13.02;10.45;;;25.10;95.60;;;;;;4923484;28;20032;-87
2021/08/30 11:27:43;;;;;;;17.25;11.40;;;25.20;96.20;;;;;;4933485;28;20090;-88
2021/08/30 11:30:12;;;;;;;12.23;10.68;;;25.30;94.80;;;;;;4918237;29;20032;-86
2021/08/30 11:32:39;;;;;;;14.82;9.93;;;25.60;95.20;;;;;;4923044;29;20040;-88
2021/08/30 11:35:06;;;;;;;11.30;10.05;;;25.60;96.20;;;;;;4914442;29;20099;-87
2021/08/30 11:37:33;;;;;;;12.50;10.15;;;25.80;94.10;;;;;;4922420;28;20040;-87
2021/08/30 11:40:18;;;;;;;13.82;8.93;;;26.10;93.50;;;;;;4907443;29;20032;-89
2021/08/30 11:42:46;;;;;;;11.48;9.25;;;26.20;93.70;;;;;;4904705;29;20028;-88
2021/08/30 11:45:37;;;;;;;12.00;8.50;;;25.90;93.20;;;;;;4558913;29;10000782;-88
2021/08/30 11:48:11;;;;;;;11.07;9.23;;;26.00;95.10;;;;;;4887466;29;20120;-89
2021/08/30 11:50:40;;;;;;;12.85;9.85;;;26.10;94.40;;;;;;4869042;29;20046;-88
2021/08/30 11:53:11;;;;;;;11.93;10.50;;;26.10;94.50;;;;;;4907877;29;20064;-90
2021/08/30 11:56:28;;;;;;;10.60;9.50;;;26.20;93.80;;;;;;4890500;29;20654;-88
2021/08/30 11:59:05;;;;;;;11.60;10.18;;;26.10;92.70;;;;;;4900329;29;20035;-89
2021/08/30 12:02:13;;;;;;;11.57;9.75;;;26.10;91.60;;;;;;4909919;29;20091;-88
2021/08/30 12:05:07;;;;;;;11.07;9.27;;;25.90;93.30;;;;;;4927702;28;20020;-88
2021/08/30 12:08:20;;;;;;;13.90;10.00;;;26.00;92.70;;;;;;4881686;29;20052;-88
2021/08/30 12:11:40;;;;;;;;;;;;;;;;;;;;;
2021/08/30 12:14:20;;;;;;;11.48;8.75;;;26.10;92.30;;;;;;4882234;29;20284;-87
2021/08/30 12:17:24;;;;;;;9.82;8.77;;;26.00;93.10;;;;;;4895377;29;20077;-87
2021/08/30 12:20:18;;;;;;;10.38;9.27;;;25.70;93.10;;;;;;4892657;29;20131;-89
2021/08/30 12:23:11;;;;;;;12.50;8.90;;;25.90;92.20;;;;;;4900939;28;20036;-89
2021/08/30 12:25:54;;;;;;;;;;;;;;;;;;;;;
2021/08/30 12:28:25;;;;;;;10.20;7.70;;;25.90;93.00;;;;;;4893768;29;20701;-89
2021/08/30 12:31:09;;;;;;;14.32;9.90;;;25.90;91.80;;;;;;4917025;29;20091;-89
2021/08/30 12:33:35;;;;;;;14.23;7.78;;;26.20;91.00;;;;;;4893705;28;20047;-89
2021/08/30 12:36:01;;;;;;;8.48;7.65;;;26.30;90.70;;;;;;4907954;29;20044;-90
2021/08/30 12:38:30;;;;;;;7.82;7.03;;;26.50;88.70;;;;;;4919879;29;20107;-89
2021/08/30 12:41:02;;;;;;;10.00;7.55;;;26.50;88.10;;;;;;4888013;29;20036;-90
2021/08/30 12:43:49;;;;;;;7.93;7.13;;;26.20;90.10;;;;;;4904818;29;20039;-90
2021/08/30 12:46:18;;;;;;;8.85;6.65;;;26.20;91.70;;;;;;4908444;29;20083;-93
2021/08/30 12:48:46;;;;;;;10.32;7.07;;;26.50;92.00;;;;;;4905012;28;20037;-91
2021/08/30 12:51:16;;;;;;;8.32;6.90;;;26.50;90.90;;;;;;4894530;29;20028;-91